sensor_id;sensor_type;location;lat;lon;timestamp;pressure;altitude;pressure_sealevel;temperature;humidity
44765;BME280;30484;52.382;5.260;2023-03-18T00:01:31;100813.09;;;15.84;100.00
44765;BME280;30484;52.382;5.260;2023-03-18T00:03:59;100811.03;;;15.88;100.00
44765;BME280;30484;52.382;5.260;2023-03-18T00:06:28;100822.56;;;15.77;100.00
44765;BME280;30484;52.382;5.260;2023-03-18T00:08:56;100814.28;;;15.80;100.00
44765;BME280;30484;52.382;5.260;2023-03-18T00:11:25;100813.50;;;15.78;100.00
44765;BME280;30484;52.382;5.260;2023-03-18T00:13:53;100813.81;;;15.36;100.00
44765;BME280;30484;52.382;5.260;2023-03-18T00:16:21;100820.00;;;15.63;100.00
44765;BME280;30484;52.382;5.260;2023-03-18T00:18:51;100818.16;;;15.63;100.00
44765;BME280;30484;52.382;5.260;2023-03-18T00:21:21;100826.59;;;15.46;100.00
44765;BME280;30484;52.382;5.260;2023-03-18T00:23:50;100817.44;;;15.48;100.00
44765;BME280;30484;52.382;5.260;2023-03-18T00:26:22;100824.97;;;15.43;100.00
44765;BME280;30484;52.382;5.260;2023-03-18T00:28:53;100826.72;;;15.44;100.00
44765;BME280;30484;52.382;5.260;2023-03-18T00:31:23;100820.47;;;15.44;100.00
44765;BME280;30484;52.382;5.260;2023-03-18T00:33:53;100828.13;;;15.37;100.00
44765;BME280;30484;52.382;5.260;2023-03-18T00:36:22;100824.69;;;15.48;100.00
44765;BME280;30484;52.382;5.260;2023-03-18T00:38:54;100814.88;;;15.47;100.00
44765;BME280;30484;52.382;5.260;2023-03-18T00:41:25;100832.94;;;15.45;100.00
44765;BME280;30484;52.382;5.260;2023-03-18T00:43:54;100831.03;;;15.47;100.00
44765;BME280;30484;52.382;5.260;2023-03-18T00:46:25;100840.84;;;15.22;100.00
44765;BME280;30484;52.382;5.260;2023-03-18T00:48:57;100839.84;;;15.10;100.00
44765;BME280;30484;52.382;5.260;2023-03-18T00:51:29;100840.38;;;15.02;100.00
44765;BME280;30484;52.382;5.260;2023-03-18T00:54:00;100852.56;;;15.21;100.00
44765;BME280;30484;52.382;5.260;2023-03-18T00:56:30;100848.91;;;14.96;100.00
44765;BME280;30484;52.382;5.260;2023-03-18T00:58:59;100858.16;;;15.18;100.00
44765;BME280;30484;52.382;5.260;2023-03-18T01:01:28;100850.19;;;15.04;100.00
44765;BME280;30484;52.382;5.260;2023-03-18T01:03:59;100853.72;;;15.04;100.00
44765;BME280;30484;52.382;5.260;2023-03-18T01:06:30;100839.34;;;15.18;100.00
44765;BME280;30484;52.382;5.260;2023-03-18T01:09:01;100845.78;;;15.15;100.00
44765;BME280;30484;52.382;5.260;2023-03-18T01:11:31;100852.56;;;15.08;100.00
44765;BME280;30484;52.382;5.260;2023-03-18T01:14:00;100857.94;;;15.08;100.00
44765;BME280;30484;52.382;5.260;2023-03-18T01:16:29;100853.31;;;15.10;100.00
44765;BME280;30484;52.382;5.260;2023-03-18T01:18:59;100851.59;;;14.96;100.00
44765;BME280;30484;52.382;5.260;2023-03-18T01:21:28;100852.56;;;15.08;100.00
44765;BME280;30484;52.382;5.260;2023-03-18T01:23:56;100847.41;;;15.05;100.00
44765;BME280;30484;52.382;5.260;2023-03-18T01:26:26;100845.00;;;15.00;100.00
44765;BME280;30484;52.382;5.260;2023-03-18T01:28:55;100839.72;;;14.99;100.00
44765;BME280;30484;52.382;5.260;2023-03-18T01:31:23;100847.50;;;15.04;100.00
44765;BME280;30484;52.382;5.260;2023-03-18T01:33:52;100835.75;;;15.05;100.00
44765;BME280;30484;52.382;5.260;2023-03-18T01:36:22;100844.59;;;15.07;100.00
44765;BME280;30484;52.382;5.260;2023-03-18T01:38:51;100844.81;;;15.04;100.00
44765;BME280;30484;52.382;5.260;2023-03-18T01:41:19;100845.88;;;14.88;100.00
44765;BME280;30484;52.382;5.260;2023-03-18T01:43:48;100839.91;;;14.83;100.00
44765;BME280;30484;52.382;5.260;2023-03-18T01:46:34;100843.31;;;14.45;100.00
44765;BME280;30484;52.382;5.260;2023-03-18T01:49:08;100848.41;;;14.77;100.00
44765;BME280;30484;52.382;5.260;2023-03-18T01:51:43;100839.84;;;15.10;100.00
44765;BME280;30484;52.382;5.260;2023-03-18T01:54:12;100830.69;;;15.13;100.00
44765;BME280;30484;52.382;5.260;2023-03-18T01:56:45;100845.13;;;15.12;100.00
44765;BME280;30484;52.382;5.260;2023-03-18T01:59:14;100835.59;;;14.67;100.00
44765;BME280;30484;52.382;5.260;2023-03-18T02:01:49;100842.13;;;15.04;100.00
44765;BME280;30484;52.382;5.260;2023-03-18T02:04:22;100827.16;;;14.59;100.00
44765;BME280;30484;52.382;5.260;2023-03-18T02:06:52;100842.19;;;14.89;100.00
44765;BME280;30484;52.382;5.260;2023-03-18T02:09:20;100841.91;;;15.07;100.00
44765;BME280;30484;52.382;5.260;2023-03-18T02:11:49;100842.97;;;15.04;100.00
44765;BME280;30484;52.382;5.260;2023-03-18T02:14:23;100847.41;;;15.05;100.00
44765;BME280;30484;52.382;5.260;2023-03-18T02:16:57;100846.63;;;15.16;100.00
44765;BME280;30484;52.382;5.260;2023-03-18T02:19:44;100847.06;;;15.23;100.00
44765;BME280;30484;52.382;5.260;2023-03-18T02:22:25;100845.78;;;15.15;100.00
44765;BME280;30484;52.382;5.260;2023-03-18T02:25:08;100854.06;;;15.25;100.00
44765;BME280;30484;52.382;5.260;2023-03-18T02:27:43;100851.38;;;15.25;100.00
44765;BME280;30484;52.382;5.260;2023-03-18T02:30:18;100867.63;;;15.11;100.00
44765;BME280;30484;52.382;5.260;2023-03-18T02:32:47;100860.88;;;15.31;100.00
44765;BME280;30484;52.382;5.260;2023-03-18T02:35:18;100849.31;;;15.42;100.00
44765;BME280;30484;52.382;5.260;2023-03-18T02:37:46;100854.41;;;15.21;100.00
44765;BME280;30484;52.382;5.260;2023-03-18T02:40:18;100864.19;;;15.34;100.00
44765;BME280;30484;52.382;5.260;2023-03-18T02:42:48;100865.25;;;15.19;100.00
44765;BME280;30484;52.382;5.260;2023-03-18T02:45:34;100870.97;;;15.27;100.00
44765;BME280;30484;52.382;5.260;2023-03-18T02:48:07;100873.03;;;15.24;100.00
44765;BME280;30484;52.382;5.260;2023-03-18T02:50:37;100879.59;;;15.32;100.00
44765;BME280;30484;52.382;5.260;2023-03-18T02:53:11;100888.97;;;15.27;100.00
44765;BME280;30484;52.382;5.260;2023-03-18T02:55:40;100881.38;;;15.06;100.00
44765;BME280;30484;52.382;5.260;2023-03-18T02:58:10;100887.31;;;15.11;100.00
44765;BME280;30484;52.382;5.260;2023-03-18T03:00:38;100887.09;;;15.01;100.00
44765;BME280;30484;52.382;5.260;2023-03-18T03:03:06;100879.69;;;15.18;100.00
44765;BME280;30484;52.382;5.260;2023-03-18T03:05:35;100892.03;;;15.08;100.00
44765;BME280;30484;52.382;5.260;2023-03-18T03:08:04;100887.94;;;14.62;100.00
44765;BME280;30484;52.382;5.260;2023-03-18T03:10:33;100894.78;;;15.33;100.00
44765;BME280;30484;52.382;5.260;2023-03-18T03:13:03;100900.22;;;14.66;100.00
44765;BME280;30484;52.382;5.260;2023-03-18T03:15:34;100890.19;;;14.95;100.00
44765;BME280;30484;52.382;5.260;2023-03-18T03:18:03;100885.19;;;15.29;100.00
44765;BME280;30484;52.382;5.260;2023-03-18T03:20:32;100873.66;;;15.40;100.00
44765;BME280;30484;52.382;5.260;2023-03-18T03:23:03;100886.16;;;15.15;100.00
44765;BME280;30484;52.382;5.260;2023-03-18T03:25:32;100883.66;;;15.12;100.00
44765;BME280;30484;52.382;5.260;2023-03-18T03:28:02;100876.47;;;15.51;100.00
44765;BME280;30484;52.382;5.260;2023-03-18T03:30:31;100878.41;;;15.62;100.00
44765;BME280;30484;52.382;5.260;2023-03-18T03:33:01;100873.97;;;15.61;100.00
44765;BME280;30484;52.382;5.260;2023-03-18T03:35:29;100877.22;;;15.66;100.00
44765;BME280;30484;52.382;5.260;2023-03-18T03:37:58;100883.13;;;15.71;100.00
44765;BME280;30484;52.382;5.260;2023-03-18T03:40:27;100883.88;;;15.74;100.00
44765;BME280;30484;52.382;5.260;2023-03-18T03:42:56;100894.66;;;15.74;100.00
44765;BME280;30484;52.382;5.260;2023-03-18T03:45:25;100899.72;;;15.52;100.00
44765;BME280;30484;52.382;5.260;2023-03-18T03:47:53;100896.59;;;15.20;100.00
44765;BME280;30484;52.382;5.260;2023-03-18T03:50:23;100894.97;;;15.43;100.00
44765;BME280;30484;52.382;5.260;2023-03-18T03:52:51;100901.44;;;15.28;100.00
44765;BME280;30484;52.382;5.260;2023-03-18T03:55:21;100903.28;;;15.40;100.00
44765;BME280;30484;52.382;5.260;2023-03-18T03:57:50;100908.06;;;14.96;100.00
44765;BME280;30484;52.382;5.260;2023-03-18T04:00:20;100904.50;;;14.96;100.00
44765;BME280;30484;52.382;5.260;2023-03-18T04:02:51;100906.38;;;15.21;100.00
44765;BME280;30484;52.382;5.260;2023-03-18T04:05:23;100902.41;;;14.74;100.00
44765;BME280;30484;52.382;5.260;2023-03-18T04:07:52;100901.47;;;15.41;100.00
44765;BME280;30484;52.382;5.260;2023-03-18T04:10:21;100901.44;;;15.15;100.00
44765;BME280;30484;52.382;5.260;2023-03-18T04:12:49;100894.56;;;15.36;100.00
44765;BME280;30484;52.382;5.260;2023-03-18T04:15:19;100896.91;;;15.15;100.00
44765;BME280;30484;52.382;5.260;2023-03-18T04:17:48;100905.84;;;15.42;100.00
44765;BME280;30484;52.382;5.260;2023-03-18T04:20:17;100901.13;;;15.32;100.00
44765;BME280;30484;52.382;5.260;2023-03-18T04:22:48;100901.63;;;15.12;100.00
44765;BME280;30484;52.382;5.260;2023-03-18T04:25:16;100905.50;;;15.08;100.00
44765;BME280;30484;52.382;5.260;2023-03-18T04:27:44;100903.59;;;15.35;100.00
44765;BME280;30484;52.382;5.260;2023-03-18T04:30:13;100907.69;;;15.54;100.00
44765;BME280;30484;52.382;5.260;2023-03-18T04:32:41;100903.81;;;15.58;100.00
44765;BME280;30484;52.382;5.260;2023-03-18T04:35:10;100911.88;;;15.19;100.00
44765;BME280;30484;52.382;5.260;2023-03-18T04:37:38;100908.66;;;15.27;100.00
44765;BME280;30484;52.382;5.260;2023-03-18T04:40:10;100901.88;;;15.34;100.00
44765;BME280;30484;52.382;5.260;2023-03-18T04:42:39;100901.47;;;15.53;100.00
44765;BME280;30484;52.382;5.260;2023-03-18T04:45:08;100910.47;;;15.14;100.00
44765;BME280;30484;52.382;5.260;2023-03-18T04:47:36;100915.34;;;15.60;100.00
44765;BME280;30484;52.382;5.260;2023-03-18T04:50:07;100916.31;;;15.59;100.00
44765;BME280;30484;52.382;5.260;2023-03-18T04:52:38;100913.63;;;15.46;100.00
44765;BME280;30484;52.382;5.260;2023-03-18T04:55:09;100918.69;;;15.51;100.00
44765;BME280;30484;52.382;5.260;2023-03-18T04:57:37;100923.56;;;15.06;100.00
44765;BME280;30484;52.382;5.260;2023-03-18T05:00:11;100921.47;;;14.83;100.00
44765;BME280;30484;52.382;5.260;2023-03-18T05:02:41;100923.13;;;14.99;100.00
44765;BME280;30484;52.382;5.260;2023-03-18T05:05:10;100935.59;;;14.87;100.00
44765;BME280;30484;52.382;5.260;2023-03-18T05:07:38;100942.22;;;15.22;100.00
44765;BME280;30484;52.382;5.260;2023-03-18T05:10:10;100943.53;;;15.29;100.00
44765;BME280;30484;52.382;5.260;2023-03-18T05:12:39;100938.91;;;15.31;100.00
44765;BME280;30484;52.382;5.260;2023-03-18T05:15:09;100944.94;;;15.34;100.00
44765;BME280;30484;52.382;5.260;2023-03-18T05:17:38;100953.34;;;15.30;100.00
44765;BME280;30484;52.382;5.260;2023-03-18T05:20:08;100945.06;;;15.46;100.00
44765;BME280;30484;52.382;5.260;2023-03-18T05:22:37;100952.06;;;15.48;100.00
44765;BME280;30484;52.382;5.260;2023-03-18T05:25:07;100950.22;;;15.36;100.00
44765;BME280;30484;52.382;5.260;2023-03-18T05:27:39;100952.28;;;15.45;100.00
44765;BME280;30484;52.382;5.260;2023-03-18T05:30:10;100963.28;;;15.55;100.00
44765;BME280;30484;52.382;5.260;2023-03-18T05:32:38;100961.00;;;15.49;100.00
44765;BME280;30484;52.382;5.260;2023-03-18T05:35:08;100955.94;;;15.44;100.00
44765;BME280;30484;52.382;5.260;2023-03-18T05:37:37;100963.50;;;15.39;100.00
44765;BME280;30484;52.382;5.260;2023-03-18T05:40:07;100972.53;;;15.38;100.00
44765;BME280;30484;52.382;5.260;2023-03-18T05:42:39;100972.91;;;15.19;100.00
44765;BME280;30484;52.382;5.260;2023-03-18T05:45:23;100975.72;;;15.30;100.00
44765;BME280;30484;52.382;5.260;2023-03-18T05:47:52;100971.59;;;15.12;100.00
44765;BME280;30484;52.382;5.260;2023-03-18T05:50:28;100979.78;;;15.23;100.00
44765;BME280;30484;52.382;5.260;2023-03-18T05:52:56;100974.25;;;15.39;100.00
44765;BME280;30484;52.382;5.260;2023-03-18T05:55:25;100969.06;;;15.36;100.00
44765;BME280;30484;52.382;5.260;2023-03-18T05:57:56;100970.34;;;15.30;100.00
44765;BME280;30484;52.382;5.260;2023-03-18T06:00:25;100975.31;;;15.36;100.00
44765;BME280;30484;52.382;5.260;2023-03-18T06:02:56;100976.19;;;15.50;100.00
44765;BME280;30484;52.382;5.260;2023-03-18T06:05:25;100982.53;;;15.49;100.00
44765;BME280;30484;52.382;5.260;2023-03-18T06:07:54;100989.72;;;15.23;100.00
44765;BME280;30484;52.382;5.260;2023-03-18T06:10:24;100991.69;;;15.33;100.00
44765;BME280;30484;52.382;5.260;2023-03-18T06:12:54;100984.84;;;15.15;100.00
44765;BME280;30484;52.382;5.260;2023-03-18T06:15:23;100996.78;;;15.51;100.00
44765;BME280;30484;52.382;5.260;2023-03-18T06:17:51;100999.75;;;15.33;100.00
44765;BME280;30484;52.382;5.260;2023-03-18T06:20:20;100997.50;;;15.53;100.00
44765;BME280;30484;52.382;5.260;2023-03-18T06:22:49;100997.16;;;15.45;100.00
44765;BME280;30484;52.382;5.260;2023-03-18T06:25:18;101000.22;;;15.53;100.00
44765;BME280;30484;52.382;5.260;2023-03-18T06:27:47;100999.78;;;15.46;100.00
44765;BME280;30484;52.382;5.260;2023-03-18T06:30:18;101002.34;;;15.08;100.00
44765;BME280;30484;52.382;5.260;2023-03-18T06:32:46;101002.41;;;15.61;100.00
44765;BME280;30484;52.382;5.260;2023-03-18T06:35:15;101001.22;;;15.65;100.00
44765;BME280;30484;52.382;5.260;2023-03-18T06:37:44;101010.69;;;15.70;100.00
44765;BME280;30484;52.382;5.260;2023-03-18T06:40:12;101023.16;;;15.59;100.00
44765;BME280;30484;52.382;5.260;2023-03-18T06:42:41;101021.53;;;15.56;100.00
44765;BME280;30484;52.382;5.260;2023-03-18T06:45:11;101015.34;;;15.28;100.00
44765;BME280;30484;52.382;5.260;2023-03-18T06:47:40;101006.03;;;15.60;100.00
44765;BME280;30484;52.382;5.260;2023-03-18T06:50:10;101028.97;;;15.52;100.00
44765;BME280;30484;52.382;5.260;2023-03-18T06:52:39;101035.25;;;15.66;100.00
44765;BME280;30484;52.382;5.260;2023-03-18T06:55:09;101040.47;;;15.42;100.00
44765;BME280;30484;52.382;5.260;2023-03-18T06:57:37;101049.91;;;15.34;100.00
44765;BME280;30484;52.382;5.260;2023-03-18T07:00:08;101045.91;;;15.27;100.00
44765;BME280;30484;52.382;5.260;2023-03-18T07:02:36;101036.41;;;15.62;100.00
44765;BME280;30484;52.382;5.260;2023-03-18T07:05:08;101034.47;;;15.11;100.00
44765;BME280;30484;52.382;5.260;2023-03-18T07:07:38;101036.00;;;15.00;100.00
44765;BME280;30484;52.382;5.260;2023-03-18T07:10:12;101035.00;;;15.56;100.00
44765;BME280;30484;52.382;5.260;2023-03-18T07:12:41;101038.94;;;15.78;100.00
44765;BME280;30484;52.382;5.260;2023-03-18T07:15:10;101049.53;;;15.81;100.00
44765;BME280;30484;52.382;5.260;2023-03-18T07:17:39;101056.31;;;15.99;100.00
44765;BME280;30484;52.382;5.260;2023-03-18T07:20:10;101058.59;;;16.05;100.00
44765;BME280;30484;52.382;5.260;2023-03-18T07:22:39;101067.03;;;15.61;100.00
44765;BME280;30484;52.382;5.260;2023-03-18T07:25:09;101064.63;;;15.96;100.00
44765;BME280;30484;52.382;5.260;2023-03-18T07:27:37;101062.44;;;15.88;100.00
44765;BME280;30484;52.382;5.260;2023-03-18T07:30:07;101074.50;;;15.43;100.00
44765;BME280;30484;52.382;5.260;2023-03-18T07:32:37;101064.31;;;16.01;100.00
44765;BME280;30484;52.382;5.260;2023-03-18T07:35:08;101071.94;;;15.81;100.00
44765;BME280;30484;52.382;5.260;2023-03-18T07:37:40;101069.78;;;16.38;100.00
44765;BME280;30484;52.382;5.260;2023-03-18T07:40:11;101068.69;;;16.53;100.00
44765;BME280;30484;52.382;5.260;2023-03-18T07:42:40;101073.53;;;16.61;100.00
44765;BME280;30484;52.382;5.260;2023-03-18T07:45:09;101076.63;;;16.81;100.00
44765;BME280;30484;52.382;5.260;2023-03-18T07:47:37;101085.25;;;16.73;100.00
44765;BME280;30484;52.382;5.260;2023-03-18T07:50:09;101083.78;;;16.69;100.00
44765;BME280;30484;52.382;5.260;2023-03-18T07:52:38;101094.75;;;16.91;100.00
44765;BME280;30484;52.382;5.260;2023-03-18T07:55:08;101086.59;;;17.41;100.00
44765;BME280;30484;52.382;5.260;2023-03-18T07:57:37;101089.78;;;16.98;100.00
44765;BME280;30484;52.382;5.260;2023-03-18T08:00:07;101086.53;;;17.54;100.00
44765;BME280;30484;52.382;5.260;2023-03-18T08:02:38;101091.00;;;17.42;100.00
44765;BME280;30484;52.382;5.260;2023-03-18T08:05:09;101099.81;;;17.93;100.00
44765;BME280;30484;52.382;5.260;2023-03-18T08:07:37;101096.00;;;17.60;100.00
44765;BME280;30484;52.382;5.260;2023-03-18T08:10:08;101095.84;;;17.50;100.00
44765;BME280;30484;52.382;5.260;2023-03-18T08:12:37;101089.28;;;17.77;100.00
44765;BME280;30484;52.382;5.260;2023-03-18T08:15:19;101092.59;;;18.05;100.00
44765;BME280;30484;52.382;5.260;2023-03-18T08:17:47;101094.91;;;17.74;100.00
44765;BME280;30484;52.382;5.260;2023-03-18T08:20:17;101082.78;;;18.15;100.00
44765;BME280;30484;52.382;5.260;2023-03-18T08:22:46;101087.38;;;17.31;100.00
44765;BME280;30484;52.382;5.260;2023-03-18T08:25:15;101084.47;;;18.05;100.00
44765;BME280;30484;52.382;5.260;2023-03-18T08:27:44;101087.81;;;17.97;100.00
44765;BME280;30484;52.382;5.260;2023-03-18T08:30:13;101079.69;;;18.08;100.00
44765;BME280;30484;52.382;5.260;2023-03-18T08:32:43;101084.22;;;17.72;100.00
44765;BME280;30484;52.382;5.260;2023-03-18T08:35:11;101076.00;;;18.09;100.00
44765;BME280;30484;52.382;5.260;2023-03-18T08:37:44;101084.34;;;18.06;100.00
44765;BME280;30484;52.382;5.260;2023-03-18T08:40:13;101089.41;;;18.22;100.00
44765;BME280;30484;52.382;5.260;2023-03-18T08:42:41;101088.19;;;18.15;100.00
44765;BME280;30484;52.382;5.260;2023-03-18T08:45:10;101089.78;;;18.18;100.00
44765;BME280;30484;52.382;5.260;2023-03-18T08:47:39;101091.03;;;17.89;100.00
44765;BME280;30484;52.382;5.260;2023-03-18T08:50:10;101082.75;;;18.04;100.00
44765;BME280;30484;52.382;5.260;2023-03-18T08:52:39;101088.59;;;18.67;100.00
44765;BME280;30484;52.382;5.260;2023-03-18T08:55:09;101092.00;;;18.80;100.00
44765;BME280;30484;52.382;5.260;2023-03-18T08:57:38;101091.78;;;18.61;100.00
44765;BME280;30484;52.382;5.260;2023-03-18T09:00:08;101090.28;;;18.57;100.00
44765;BME280;30484;52.382;5.260;2023-03-18T09:02:37;101085.88;;;18.67;100.00
44765;BME280;30484;52.382;5.260;2023-03-18T09:05:06;101079.69;;;18.20;100.00
44765;BME280;30484;52.382;5.260;2023-03-18T09:07:34;101079.97;;;18.73;100.00
44765;BME280;30484;52.382;5.260;2023-03-18T09:10:03;101082.53;;;18.97;100.00
44765;BME280;30484;52.382;5.260;2023-03-18T09:12:33;101075.66;;;18.71;100.00
44765;BME280;30484;52.382;5.260;2023-03-18T09:15:01;101079.22;;;18.83;100.00
44765;BME280;30484;52.382;5.260;2023-03-18T09:17:31;101084.66;;;18.37;100.00
44765;BME280;30484;52.382;5.260;2023-03-18T09:20:20;101091.47;;;19.21;100.00
44765;BME280;30484;52.382;5.260;2023-03-18T09:22:48;101089.38;;;19.24;100.00
44765;BME280;30484;52.382;5.260;2023-03-18T09:25:18;101082.41;;;19.10;100.00
44765;BME280;30484;52.382;5.260;2023-03-18T09:27:48;101084.03;;;19.45;100.00
44765;BME280;30484;52.382;5.260;2023-03-18T09:30:17;101089.22;;;19.37;100.00
44765;BME280;30484;52.382;5.260;2023-03-18T09:32:46;101084.78;;;19.36;100.00
44765;BME280;30484;52.382;5.260;2023-03-18T09:35:15;101088.34;;;19.37;100.00
44765;BME280;30484;52.382;5.260;2023-03-18T09:37:43;101096.28;;;19.28;100.00
44765;BME280;30484;52.382;5.260;2023-03-18T09:40:19;101090.81;;;19.61;100.00
44765;BME280;30484;52.382;5.260;2023-03-18T09:43:04;101087.88;;;19.64;100.00
44765;BME280;30484;52.382;5.260;2023-03-18T09:45:47;101093.81;;;20.11;100.00
44765;BME280;30484;52.382;5.260;2023-03-18T09:49:02;101095.63;;;19.36;100.00
44765;BME280;30484;52.382;5.260;2023-03-18T09:51:43;101096.19;;;20.05;100.00
44765;BME280;30484;52.382;5.260;2023-03-18T09:54:20;101094.19;;;19.53;100.00
44765;BME280;30484;52.382;5.260;2023-03-18T09:56:53;101098.19;;;20.03;100.00
44765;BME280;30484;52.382;5.260;2023-03-18T09:59:28;101098.34;;;20.11;100.00
44765;BME280;30484;52.382;5.260;2023-03-18T10:01:58;101095.03;;;20.28;100.00
44765;BME280;30484;52.382;5.260;2023-03-18T10:04:35;101102.44;;;20.26;100.00
44765;BME280;30484;52.382;5.260;2023-03-18T10:07:12;101109.47;;;20.29;100.00
44765;BME280;30484;52.382;5.260;2023-03-18T10:09:44;101107.41;;;20.42;100.00
44765;BME280;30484;52.382;5.260;2023-03-18T10:12:17;101126.75;;;20.80;100.00
44765;BME280;30484;52.382;5.260;2023-03-18T10:15:00;101123.22;;;20.99;100.00
44765;BME280;30484;52.382;5.260;2023-03-18T10:17:36;101116.44;;;20.52;100.00
44765;BME280;30484;52.382;5.260;2023-03-18T10:20:18;101126.22;;;20.96;100.00
44765;BME280;30484;52.382;5.260;2023-03-18T10:23:12;101122.56;;;20.76;100.00
44765;BME280;30484;52.382;5.260;2023-03-18T10:25:51;101120.19;;;20.82;100.00
44765;BME280;30484;52.382;5.260;2023-03-18T10:28:46;101119.88;;;20.55;100.00
44765;BME280;30484;52.382;5.260;2023-03-18T10:31:23;101120.44;;;20.06;100.00
44765;BME280;30484;52.382;5.260;2023-03-18T10:33:58;101128.03;;;20.55;100.00
44765;BME280;30484;52.382;5.260;2023-03-18T10:36:33;101124.66;;;20.62;100.00
44765;BME280;30484;52.382;5.260;2023-03-18T10:39:11;101120.66;;;19.93;100.00
44765;BME280;30484;52.382;5.260;2023-03-18T10:41:42;101113.91;;;20.30;100.00
44765;BME280;30484;52.382;5.260;2023-03-18T10:44:20;101106.88;;;20.79;100.00
44765;BME280;30484;52.382;5.260;2023-03-18T10:46:58;101113.91;;;20.92;100.00
44765;BME280;30484;52.382;5.260;2023-03-18T10:49:31;101105.34;;;21.57;100.00
44765;BME280;30484;52.382;5.260;2023-03-18T10:52:08;101102.28;;;21.40;100.00
44765;BME280;30484;52.382;5.260;2023-03-18T10:54:42;101101.13;;;21.33;100.00
44765;BME280;30484;52.382;5.260;2023-03-18T10:57:14;101095.84;;;22.00;100.00
44765;BME280;30484;52.382;5.260;2023-03-18T10:59:43;101091.72;;;21.86;100.00
44765;BME280;30484;52.382;5.260;2023-03-18T11:02:17;101093.19;;;21.00;100.00
44765;BME280;30484;52.382;5.260;2023-03-18T11:04:49;101092.13;;;22.01;100.00
44765;BME280;30484;52.382;5.260;2023-03-18T11:07:24;101097.25;;;21.26;100.00
44765;BME280;30484;52.382;5.260;2023-03-18T11:09:53;101093.38;;;21.18;100.00
44765;BME280;30484;52.382;5.260;2023-03-18T11:12:24;101087.44;;;21.54;100.00
44765;BME280;30484;52.382;5.260;2023-03-18T11:14:54;101092.31;;;21.80;100.00
44765;BME280;30484;52.382;5.260;2023-03-18T11:17:30;101093.28;;;21.40;100.00
44765;BME280;30484;52.382;5.260;2023-03-18T11:20:02;101091.09;;;21.04;100.00
44765;BME280;30484;52.382;5.260;2023-03-18T11:22:34;101092.75;;;21.75;100.00
44765;BME280;30484;52.382;5.260;2023-03-18T11:25:13;101098.19;;;21.75;100.00
44765;BME280;30484;52.382;5.260;2023-03-18T11:27:44;101100.84;;;21.95;100.00
44765;BME280;30484;52.382;5.260;2023-03-18T11:30:20;101106.63;;;21.72;100.00
44765;BME280;30484;52.382;5.260;2023-03-18T11:33:11;101103.75;;;21.64;100.00
44765;BME280;30484;52.382;5.260;2023-03-18T11:35:44;101107.72;;;22.09;100.00
44765;BME280;30484;52.382;5.260;2023-03-18T11:38:16;101103.03;;;21.81;100.00
44765;BME280;30484;52.382;5.260;2023-03-18T11:40:46;101107.69;;;22.28;100.00
44765;BME280;30484;52.382;5.260;2023-03-18T11:43:18;101114.28;;;22.16;100.00
44765;BME280;30484;52.382;5.260;2023-03-18T11:45:54;101103.84;;;22.11;100.00
44765;BME280;30484;52.382;5.260;2023-03-18T11:48:32;101102.13;;;22.00;100.00
44765;BME280;30484;52.382;5.260;2023-03-18T11:51:30;101106.88;;;22.08;100.00
44765;BME280;30484;52.382;5.260;2023-03-18T11:54:36;101111.47;;;21.88;100.00
44765;BME280;30484;52.382;5.260;2023-03-18T11:57:14;101104.00;;;22.00;100.00
44765;BME280;30484;52.382;5.260;2023-03-18T11:59:57;101109.13;;;22.22;100.00
44765;BME280;30484;52.382;5.260;2023-03-18T12:06:18;101102.28;;;21.99;100.00
44765;BME280;30484;52.382;5.260;2023-03-18T12:09:08;101096.00;;;21.98;100.00
44765;BME280;30484;52.382;5.260;2023-03-18T12:11:59;101100.31;;;21.91;100.00
44765;BME280;30484;52.382;5.260;2023-03-18T12:14:39;101095.00;;;21.89;100.00
44765;BME280;30484;52.382;5.260;2023-03-18T12:17:24;101094.44;;;21.86;100.00
44765;BME280;30484;52.382;5.260;2023-03-18T12:20:14;101092.88;;;21.64;100.00
44765;BME280;30484;52.382;5.260;2023-03-18T12:23:01;101096.31;;;21.66;100.00
44765;BME280;30484;52.382;5.260;2023-03-18T12:25:55;101095.03;;;21.80;100.00
44765;BME280;30484;52.382;5.260;2023-03-18T12:28:39;101094.44;;;21.86;100.00
44765;BME280;30484;52.382;5.260;2023-03-18T12:31:32;101092.44;;;21.78;100.00
44765;BME280;30484;52.382;5.260;2023-03-18T12:34:06;101092.19;;;22.29;100.00
44765;BME280;30484;52.382;5.260;2023-03-18T12:36:53;101097.13;;;21.37;100.00
44765;BME280;30484;52.382;5.260;2023-03-18T12:40:15;101096.50;;;22.21;100.00
44765;BME280;30484;52.382;5.260;2023-03-18T12:43:11;101109.75;;;21.87;100.00
44765;BME280;30484;52.382;5.260;2023-03-18T12:45:52;101098.75;;;20.89;100.00
44765;BME280;30484;52.382;5.260;2023-03-18T12:48:49;101102.91;;;21.53;100.00
44765;BME280;30484;52.382;5.260;2023-03-18T12:51:24;101102.50;;;20.36;100.00
44765;BME280;30484;52.382;5.260;2023-03-18T12:53:59;101101.59;;;20.88;100.00
44765;BME280;30484;52.382;5.260;2023-03-18T12:56:39;101111.34;;;21.80;100.00
44765;BME280;30484;52.382;5.260;2023-03-18T12:59:16;101116.50;;;21.53;100.00
44765;BME280;30484;52.382;5.260;2023-03-18T13:04:52;101091.38;;;21.20;100.00
44765;BME280;30484;52.382;5.260;2023-03-18T13:07:26;101087.31;;;20.85;100.00
44765;BME280;30484;52.382;5.260;2023-03-18T13:10:05;101099.81;;;20.67;100.00
44765;BME280;30484;52.382;5.260;2023-03-18T13:12:38;101099.91;;;21.57;100.00
44765;BME280;30484;52.382;5.260;2023-03-18T13:15:20;101100.16;;;21.83;100.00